createdAt,value
2018-12-10T00:01:04.170Z,5.80
2018-12-10T00:02:10.186Z,5.80
2018-12-10T00:03:21.614Z,5.80
2018-12-10T00:04:27.784Z,5.80
2018-12-10T00:05:33.966Z,5.80
2018-12-10T00:06:38.089Z,5.70
2018-12-10T00:07:42.165Z,5.80
2018-12-10T00:08:46.196Z,5.70
2018-12-10T00:09:50.290Z,5.70
2018-12-10T00:10:54.455Z,5.70
2018-12-10T00:11:58.493Z,5.70
2018-12-10T00:13:02.541Z,5.70
2018-12-10T00:14:06.610Z,5.70
2018-12-10T00:15:10.839Z,5.70
2018-12-10T00:16:14.873Z,5.70
2018-12-10T00:17:19.227Z,5.70
2018-12-10T00:18:23.469Z,5.70
2018-12-10T00:19:27.556Z,5.70
2018-12-10T00:20:31.584Z,5.80
2018-12-10T00:21:35.580Z,5.80
2018-12-10T00:22:39.593Z,5.80
2018-12-10T00:23:43.669Z,5.80
2018-12-10T00:24:48.714Z,5.80
2018-12-10T00:25:53.041Z,5.80
2018-12-10T00:26:57.068Z,5.80
2018-12-10T00:28:01.628Z,5.80
2018-12-10T00:29:05.714Z,5.80
2018-12-10T00:30:09.822Z,5.80
2018-12-10T00:32:38.387Z,5.80
2018-12-10T00:33:42.559Z,5.80
2018-12-10T00:34:46.585Z,5.80
2018-12-10T00:35:50.590Z,5.80
2018-12-10T00:36:54.612Z,5.70
2018-12-10T00:37:58.665Z,5.70
2018-12-10T00:39:02.707Z,5.70
2018-12-10T00:40:08.949Z,5.70
2018-12-10T00:41:13.047Z,5.70
2018-12-10T00:42:20.633Z,5.70
2018-12-10T00:43:24.716Z,5.60
2018-12-10T00:44:28.772Z,5.70
2018-12-10T00:45:32.875Z,5.70
2018-12-10T00:46:36.912Z,5.70
2018-12-10T00:47:40.977Z,5.70
2018-12-10T00:48:45.218Z,5.60
2018-12-10T00:49:49.341Z,5.70
2018-12-10T00:50:53.509Z,5.60
2018-12-10T00:51:57.578Z,5.60
2018-12-10T00:53:01.631Z,5.60
2018-12-10T00:54:06.023Z,5.60
2018-12-10T00:55:10.122Z,5.70
2018-12-10T00:56:14.152Z,5.60
2018-12-10T00:57:18.175Z,5.60
2018-12-10T00:58:22.393Z,5.60
2018-12-10T00:59:26.438Z,5.60
2018-12-10T01:00:30.598Z,5.60
2018-12-10T01:01:34.635Z,5.60
2018-12-10T01:02:38.701Z,5.60
2018-12-10T01:03:42.749Z,5.60
2018-12-10T01:04:46.969Z,5.60
2018-12-10T01:05:51.358Z,5.50
2018-12-10T01:06:55.390Z,5.60
2018-12-10T01:07:59.535Z,5.50
2018-12-10T01:09:04.328Z,5.50
2018-12-10T01:10:10.361Z,5.50
2018-12-10T01:11:15.250Z,5.50
2018-12-10T01:12:19.381Z,5.50
2018-12-10T01:13:23.559Z,5.40
2018-12-10T01:14:27.743Z,5.50
2018-12-10T01:15:31.815Z,5.40
2018-12-10T01:16:35.839Z,5.50
2018-12-10T01:17:39.884Z,5.40
2018-12-10T01:18:44.020Z,5.40
2018-12-10T01:19:48.145Z,5.50
2018-12-10T01:20:52.285Z,5.50
2018-12-10T01:21:56.450Z,5.40
2018-12-10T01:23:00.491Z,5.40
2018-12-10T01:24:04.667Z,5.50
2018-12-10T01:25:08.760Z,5.50
2018-12-10T01:26:13.966Z,5.50
2018-12-10T01:27:18.015Z,5.50
2018-12-10T01:28:22.073Z,5.50
2018-12-10T01:29:26.183Z,5.50
2018-12-10T01:30:30.722Z,5.50
2018-12-10T01:31:34.788Z,5.40
2018-12-10T01:32:39.126Z,5.40
2018-12-10T01:33:43.375Z,5.40
2018-12-10T01:34:47.491Z,5.40
2018-12-10T01:35:51.582Z,5.40
2018-12-10T01:36:55.688Z,5.40
2018-12-10T01:37:59.847Z,5.40
2018-12-10T01:39:04.943Z,5.40
2018-12-10T01:40:10.963Z,5.40
2018-12-10T01:41:14.977Z,5.40
2018-12-10T01:42:19.036Z,5.40
2018-12-10T01:43:23.103Z,5.40
2018-12-10T01:44:27.179Z,5.40
2018-12-10T01:45:31.268Z,5.40
2018-12-10T01:46:35.502Z,5.40
2018-12-10T01:47:39.529Z,5.40
2018-12-10T01:48:43.538Z,5.50
2018-12-10T01:49:47.613Z,5.50
2018-12-10T01:50:51.724Z,5.50
2018-12-10T01:51:55.769Z,5.50
2018-12-10T01:52:59.865Z,5.50
2018-12-10T01:54:04.061Z,5.50
2018-12-10T01:55:08.370Z,5.60
2018-12-10T01:56:12.478Z,5.60
2018-12-10T01:57:16.712Z,5.60
2018-12-10T01:58:20.804Z,5.60
2018-12-10T01:59:24.876Z,5.60
2018-12-10T02:00:29.078Z,5.70
2018-12-10T02:01:33.231Z,5.70
2018-12-10T02:02:38.003Z,5.70
2018-12-10T02:03:42.069Z,5.70
2018-12-10T02:04:46.142Z,5.70
2018-12-10T02:05:50.623Z,5.70
2018-12-10T02:06:54.727Z,5.60
2018-12-10T02:07:58.737Z,5.60
2018-12-10T02:09:02.870Z,5.60
2018-12-10T02:10:09.494Z,5.60
2018-12-10T02:11:13.554Z,5.60
2018-12-10T02:12:17.590Z,5.60
2018-12-10T02:13:21.607Z,5.60
2018-12-10T02:14:25.700Z,5.60
2018-12-10T02:15:29.705Z,5.50
2018-12-10T02:16:33.760Z,5.50
2018-12-10T02:17:38.900Z,5.50
2018-12-10T02:18:42.966Z,5.50
2018-12-10T02:19:47.983Z,5.40
2018-12-10T02:20:52.299Z,5.40
2018-12-10T02:21:56.341Z,5.40
2018-12-10T02:23:00.481Z,5.40
2018-12-10T02:24:04.604Z,5.40
2018-12-10T02:25:08.682Z,5.40
2018-12-10T02:26:12.751Z,5.40
2018-12-10T02:27:16.793Z,5.30
2018-12-10T02:28:26.147Z,5.30
2018-12-10T02:29:30.205Z,5.30
2018-12-10T02:30:34.313Z,5.30
2018-12-10T02:31:38.407Z,5.30
2018-12-10T02:32:42.470Z,5.30
2018-12-10T02:33:46.578Z,5.20
2018-12-10T02:34:50.764Z,5.30
2018-12-10T02:35:54.822Z,5.30
2018-12-10T02:36:58.863Z,5.20
2018-12-10T02:38:03.068Z,5.20
2018-12-10T02:39:07.241Z,5.20
2018-12-10T02:40:13.297Z,5.20
2018-12-10T02:41:17.393Z,5.20
2018-12-10T02:42:21.601Z,5.20
2018-12-10T02:43:25.711Z,5.20
2018-12-10T02:44:29.757Z,5.20
2018-12-10T02:45:33.862Z,5.20
2018-12-10T02:46:37.921Z,5.20
2018-12-10T02:47:42.000Z,5.20
2018-12-10T02:48:46.044Z,5.20
2018-12-10T02:49:50.099Z,5.10
2018-12-10T02:50:54.257Z,5.20
2018-12-10T02:51:58.433Z,5.20
2018-12-10T02:53:03.104Z,5.10
2018-12-10T02:54:07.278Z,5.10
2018-12-10T02:55:11.348Z,5.20
2018-12-10T02:56:15.503Z,5.20
2018-12-10T02:57:19.611Z,5.20
2018-12-10T02:58:23.643Z,5.20
2018-12-10T02:59:27.760Z,5.20
2018-12-10T03:00:31.934Z,5.20
2018-12-10T03:01:36.150Z,5.20
2018-12-10T03:02:40.306Z,5.10
2018-12-10T03:03:44.347Z,5.10
2018-12-10T03:04:48.462Z,5.10
2018-12-10T03:05:52.483Z,5.10
2018-12-10T03:06:56.599Z,5.20
2018-12-10T03:08:01.718Z,5.20
2018-12-10T03:09:08.579Z,5.20
2018-12-10T03:10:12.681Z,5.10
2018-12-10T03:11:16.768Z,5.20
2018-12-10T03:12:20.875Z,5.10
2018-12-10T03:13:25.057Z,5.10
2018-12-10T03:14:29.125Z,5.20
2018-12-10T03:15:33.180Z,5.10
2018-12-10T03:16:37.309Z,5.10
2018-12-10T03:17:43.468Z,5.10
2018-12-10T03:18:47.578Z,5.10
2018-12-10T03:19:51.742Z,5.10
2018-12-10T03:20:55.979Z,5.10
2018-12-10T03:22:00.114Z,5.00
2018-12-10T03:23:04.273Z,5.10
2018-12-10T03:24:08.333Z,5.00
2018-12-10T03:25:12.445Z,5.10
2018-12-10T03:26:16.519Z,5.00
2018-12-10T03:27:20.545Z,5.10
2018-12-10T03:28:24.691Z,5.00
2018-12-10T03:29:28.719Z,5.00
2018-12-10T03:30:32.895Z,5.00
2018-12-10T03:31:37.223Z,5.00
2018-12-10T03:32:41.296Z,5.00
2018-12-10T03:33:45.445Z,5.00
2018-12-10T03:34:49.520Z,5.00
2018-12-10T03:35:53.694Z,5.10
2018-12-10T03:36:57.756Z,5.00
2018-12-10T03:38:01.865Z,5.10
2018-12-10T03:39:06.978Z,5.00
2018-12-10T03:40:12.664Z,5.00
2018-12-10T03:41:16.736Z,5.00
2018-12-10T03:42:20.870Z,5.10
2018-12-10T03:43:24.917Z,5.10
2018-12-10T03:44:28.978Z,5.00
2018-12-10T03:45:33.041Z,5.00
2018-12-10T03:46:37.200Z,5.00
2018-12-10T03:47:41.331Z,5.10
2018-12-10T03:48:45.562Z,5.10
2018-12-10T03:49:49.757Z,5.10
2018-12-10T03:50:53.891Z,5.10
2018-12-10T03:51:58.019Z,5.00
2018-12-10T03:53:02.291Z,5.00
2018-12-10T03:54:06.559Z,5.10
2018-12-10T03:55:10.732Z,5.00
2018-12-10T03:56:14.796Z,5.10
2018-12-10T03:57:18.830Z,5.00
2018-12-10T03:58:23.051Z,5.10
2018-12-10T03:59:27.691Z,5.00
2018-12-10T04:00:31.777Z,5.00
2018-12-10T04:01:35.877Z,5.00
2018-12-10T04:02:40.000Z,5.00
2018-12-10T04:03:47.150Z,5.00
2018-12-10T04:04:51.235Z,5.00
2018-12-10T04:05:55.340Z,5.00
2018-12-10T04:06:59.543Z,5.00
2018-12-10T04:08:03.634Z,5.00
2018-12-10T04:09:08.022Z,5.00
2018-12-10T04:10:12.143Z,5.00
2018-12-10T04:11:16.203Z,5.00
2018-12-10T04:12:20.429Z,5.00
2018-12-10T04:13:24.495Z,4.90
2018-12-10T04:14:28.633Z,4.90
2018-12-10T04:15:32.710Z,4.90
2018-12-10T04:16:36.915Z,4.90
2018-12-10T04:17:41.121Z,4.90
2018-12-10T04:18:45.170Z,4.90
2018-12-10T04:19:49.256Z,4.90
2018-12-10T04:20:53.409Z,4.90
2018-12-10T04:21:57.464Z,4.90
2018-12-10T04:23:01.648Z,4.90
2018-12-10T04:24:07.713Z,4.90
2018-12-10T04:25:11.781Z,4.80
2018-12-10T04:26:15.847Z,4.80
2018-12-10T04:27:20.021Z,4.80
2018-12-10T04:28:24.111Z,4.80
2018-12-10T04:29:28.128Z,4.80
2018-12-10T04:30:33.382Z,4.80
2018-12-10T04:31:37.523Z,4.80
2018-12-10T04:32:41.627Z,4.80
2018-12-10T04:33:45.719Z,4.80
2018-12-10T04:34:49.762Z,4.80
2018-12-10T04:35:53.859Z,4.80
2018-12-10T04:36:57.907Z,4.80
2018-12-10T04:38:01.951Z,4.80
2018-12-10T04:39:07.856Z,4.80
2018-12-10T04:40:11.985Z,4.80
2018-12-10T04:41:16.057Z,4.80
2018-12-10T04:42:20.116Z,4.80
2018-12-10T04:43:24.867Z,4.80
2018-12-10T04:44:29.032Z,4.80
2018-12-10T04:45:33.112Z,4.80
2018-12-10T04:46:37.196Z,4.80
2018-12-10T04:47:41.259Z,4.80
2018-12-10T04:48:45.363Z,4.80
2018-12-10T04:49:49.450Z,4.80
2018-12-10T04:50:53.491Z,4.80
2018-12-10T04:51:57.594Z,4.80
2018-12-10T04:53:01.682Z,4.80
2018-12-10T04:54:05.753Z,4.80
2018-12-10T04:55:10.047Z,4.80
2018-12-10T04:56:14.234Z,4.80
2018-12-10T04:57:18.324Z,4.80
2018-12-10T04:58:22.411Z,4.90
2018-12-10T04:59:26.431Z,4.90
2018-12-10T05:00:30.523Z,4.90
2018-12-10T05:01:34.889Z,4.90
2018-12-10T05:02:38.915Z,4.90
2018-12-10T05:03:43.092Z,4.90
2018-12-10T05:04:47.181Z,4.90
2018-12-10T05:05:51.223Z,4.90
2018-12-10T05:06:55.323Z,4.90
2018-12-10T05:07:59.422Z,4.90
2018-12-10T05:09:05.378Z,4.90
2018-12-10T05:10:10.788Z,4.90
2018-12-10T05:11:14.996Z,4.80
2018-12-10T05:12:19.036Z,4.90
2018-12-10T05:13:23.084Z,4.90
2018-12-10T05:14:27.195Z,4.80
2018-12-10T05:15:31.391Z,4.80
2018-12-10T05:16:35.464Z,4.80
2018-12-10T05:17:39.713Z,4.80
2018-12-10T05:18:43.767Z,4.80
2018-12-10T05:19:47.822Z,4.80
2018-12-10T05:20:51.907Z,4.80
2018-12-10T05:21:55.964Z,4.80
2018-12-10T05:23:00.073Z,4.80
2018-12-10T05:24:04.193Z,4.80
2018-12-10T05:25:11.285Z,4.80
2018-12-10T05:26:16.037Z,4.80
2018-12-10T05:27:20.118Z,4.80
2018-12-10T05:28:24.190Z,4.80
2018-12-10T05:29:28.680Z,4.70
2018-12-10T05:30:32.784Z,4.70
2018-12-10T05:31:37.216Z,4.80
2018-12-10T05:32:41.281Z,4.80
2018-12-10T05:33:45.439Z,4.80
2018-12-10T05:34:49.473Z,4.80
2018-12-10T05:35:53.507Z,4.80
2018-12-10T05:36:57.559Z,4.80
2018-12-10T05:38:01.799Z,4.80
2018-12-10T05:39:07.188Z,4.80
2018-12-10T05:40:11.502Z,4.80
2018-12-10T05:41:15.511Z,4.80
2018-12-10T05:42:19.547Z,4.80
2018-12-10T05:43:23.661Z,4.80
2018-12-10T05:44:27.757Z,4.80
2018-12-10T05:45:31.874Z,4.80
2018-12-10T05:46:35.977Z,4.80
2018-12-10T05:47:41.129Z,4.80
2018-12-10T05:48:45.190Z,4.80
2018-12-10T05:49:49.221Z,4.80
2018-12-10T05:50:53.280Z,4.80
2018-12-10T05:51:57.295Z,4.80
2018-12-10T05:53:01.460Z,4.80
2018-12-10T05:54:05.548Z,4.80
2018-12-10T05:55:09.813Z,4.80
2018-12-10T05:56:13.833Z,4.80
2018-12-10T05:57:17.907Z,4.80
2018-12-10T05:58:22.192Z,4.80
2018-12-10T05:59:26.795Z,4.80
2018-12-10T06:00:31.020Z,4.70
2018-12-10T06:01:35.058Z,4.80
2018-12-10T06:02:39.120Z,4.80
2018-12-10T06:03:43.150Z,4.70
2018-12-10T06:04:47.184Z,4.70
2018-12-10T06:05:51.289Z,4.70
2018-12-10T06:06:55.384Z,4.70
2018-12-10T06:07:59.529Z,4.80
2018-12-10T06:09:05.214Z,4.80
2018-12-10T06:10:09.296Z,4.80
2018-12-10T06:11:13.473Z,4.80
2018-12-10T06:12:17.519Z,4.80
2018-12-10T06:13:21.569Z,4.70
2018-12-10T06:14:25.607Z,4.80
2018-12-10T06:15:29.756Z,4.80
2018-12-10T06:16:33.806Z,4.80
2018-12-10T06:17:37.843Z,4.80
2018-12-10T06:18:41.916Z,4.80
2018-12-10T06:19:46.012Z,4.80
2018-12-10T06:20:50.170Z,4.80
2018-12-10T06:21:54.265Z,4.80
2018-12-10T06:22:59.041Z,4.80
2018-12-10T06:24:03.689Z,4.90
2018-12-10T06:25:15.087Z,4.80
2018-12-10T06:26:19.173Z,4.90
2018-12-10T06:27:23.380Z,4.80
2018-12-10T06:28:27.442Z,4.90
2018-12-10T06:29:31.590Z,4.80
2018-12-10T06:30:35.770Z,4.80
2018-12-10T06:31:39.865Z,4.80
2018-12-10T06:32:44.004Z,4.80
2018-12-10T06:33:48.079Z,4.80
2018-12-10T06:34:52.196Z,4.80
2018-12-10T06:35:57.064Z,4.80
2018-12-10T06:37:03.075Z,4.80
2018-12-10T06:38:07.197Z,4.80
2018-12-10T06:39:11.367Z,4.80
2018-12-10T06:40:15.530Z,4.70
2018-12-10T06:41:19.558Z,4.70
2018-12-10T06:42:23.699Z,4.70
2018-12-10T06:43:27.748Z,4.70
2018-12-10T06:44:32.843Z,4.70
2018-12-10T06:45:36.895Z,4.70
2018-12-10T06:46:41.031Z,4.70
2018-12-10T06:47:45.114Z,4.70
2018-12-10T06:48:49.201Z,4.70
2018-12-10T06:49:53.253Z,4.70
2018-12-10T06:50:57.360Z,4.70
2018-12-10T06:52:01.399Z,4.70
2018-12-10T06:53:05.486Z,4.70
2018-12-10T06:54:09.608Z,4.70
2018-12-10T06:55:13.851Z,4.70
2018-12-10T06:56:17.906Z,4.70
2018-12-10T06:57:21.933Z,4.70
2018-12-10T06:58:26.002Z,4.70
2018-12-10T06:59:30.078Z,4.70
2018-12-10T07:00:34.179Z,4.70
2018-12-10T07:01:40.250Z,4.70
2018-12-10T07:02:44.322Z,4.70
2018-12-10T07:03:52.583Z,4.70
2018-12-10T07:04:56.674Z,4.70
2018-12-10T07:06:00.734Z,4.70
2018-12-10T07:07:05.268Z,4.70
2018-12-10T07:08:09.409Z,4.70
2018-12-10T07:09:13.825Z,4.70
2018-12-10T07:10:17.926Z,4.70
2018-12-10T07:11:22.013Z,4.70
2018-12-10T07:12:26.097Z,4.70
2018-12-10T07:13:30.201Z,4.70
2018-12-10T07:14:34.262Z,4.70
2018-12-10T07:15:38.366Z,4.70
2018-12-10T07:16:42.449Z,4.70
2018-12-10T07:17:46.451Z,4.70
2018-12-10T07:18:50.527Z,4.80
2018-12-10T07:19:54.619Z,4.80
2018-12-10T07:20:58.785Z,4.80
2018-12-10T07:22:02.858Z,4.80
2018-12-10T07:23:06.961Z,4.80
2018-12-10T07:24:11.054Z,4.80
2018-12-10T07:25:15.172Z,4.70
2018-12-10T07:26:19.308Z,4.80
2018-12-10T07:27:23.376Z,4.70
2018-12-10T07:28:28.677Z,4.70
2018-12-10T07:29:32.728Z,4.80
2018-12-10T07:30:41.385Z,4.70
2018-12-10T07:31:42.953Z,4.70
2018-12-10T07:32:47.025Z,4.80
2018-12-10T07:33:51.045Z,4.70
2018-12-10T07:34:55.146Z,4.70
2018-12-10T07:35:59.280Z,4.80
2018-12-10T07:37:03.401Z,4.80
2018-12-10T07:38:07.493Z,4.80
2018-12-10T07:39:11.579Z,4.80
2018-12-10T07:40:15.693Z,4.80
2018-12-10T07:41:19.735Z,4.80
2018-12-10T07:42:23.790Z,4.80
2018-12-10T07:43:27.804Z,4.80
2018-12-10T07:44:31.907Z,4.80
2018-12-10T07:45:35.964Z,4.80
2018-12-10T07:46:40.124Z,4.80
2018-12-10T07:47:44.222Z,4.90
2018-12-10T07:48:48.318Z,4.90
2018-12-10T07:49:52.545Z,4.90
2018-12-10T07:50:56.727Z,4.90
2018-12-10T07:52:00.958Z,4.90
2018-12-10T07:53:05.259Z,4.90
2018-12-10T07:54:09.350Z,4.90
2018-12-10T07:55:13.611Z,4.90
2018-12-10T07:56:18.269Z,4.80
2018-12-10T07:57:22.461Z,4.90
2018-12-10T07:58:26.637Z,4.80
2018-12-10T07:59:30.762Z,4.80
2018-12-10T08:00:34.989Z,4.80
2018-12-10T08:01:39.261Z,4.80
2018-12-10T08:02:43.319Z,4.90
2018-12-10T08:03:47.582Z,4.90
2018-12-10T08:04:51.660Z,4.90
2018-12-10T08:05:55.777Z,4.90
2018-12-10T08:06:59.879Z,4.90
2018-12-10T08:08:04.060Z,4.90
2018-12-10T08:09:08.147Z,4.90
2018-12-10T08:10:12.233Z,4.90
2018-12-10T08:11:16.459Z,4.90
2018-12-10T08:12:20.759Z,4.90
2018-12-10T08:13:24.814Z,5.00
2018-12-10T08:14:28.853Z,5.00
2018-12-10T08:15:32.920Z,5.00
2018-12-10T08:16:37.021Z,5.00
2018-12-10T08:17:41.057Z,5.00
2018-12-10T08:18:45.114Z,5.00
2018-12-10T08:19:49.190Z,5.00
2018-12-10T08:21:01.928Z,5.00
2018-12-10T08:21:59.379Z,5.00
2018-12-10T08:23:03.549Z,4.90
2018-12-10T08:24:07.585Z,4.90
2018-12-10T08:25:11.629Z,4.90
2018-12-10T08:26:15.830Z,4.90
2018-12-10T08:27:20.036Z,4.90
2018-12-10T08:28:24.130Z,4.90
2018-12-10T08:29:28.223Z,5.00
2018-12-10T08:30:32.385Z,5.00
2018-12-10T08:31:36.652Z,5.00
2018-12-10T08:32:47.352Z,5.00
2018-12-10T08:33:51.406Z,5.00
2018-12-10T08:34:55.461Z,5.10
2018-12-10T08:35:59.603Z,5.10
2018-12-10T08:37:03.739Z,5.10
2018-12-10T08:38:07.934Z,5.20
2018-12-10T08:39:11.962Z,5.20
2018-12-10T08:40:16.061Z,5.20
2018-12-10T08:41:20.322Z,5.20
2018-12-10T08:42:25.408Z,5.30
2018-12-10T08:43:29.570Z,5.30
2018-12-10T08:44:33.651Z,5.30
2018-12-10T08:45:37.709Z,5.30
2018-12-10T08:46:41.837Z,5.30
2018-12-10T08:47:45.912Z,5.30
2018-12-10T08:48:50.006Z,5.30
2018-12-10T08:49:54.145Z,5.30
2018-12-10T08:50:58.274Z,5.30
2018-12-10T08:52:02.477Z,5.40
2018-12-10T08:53:06.511Z,5.40
2018-12-10T08:54:10.985Z,5.50
2018-12-10T08:55:15.045Z,5.60
2018-12-10T08:56:19.357Z,5.60
2018-12-10T08:57:23.461Z,5.70
2018-12-10T08:58:27.731Z,5.70
2018-12-10T08:59:32.025Z,5.80
2018-12-10T09:00:37.241Z,5.90
2018-12-10T09:01:41.512Z,5.90
2018-12-10T09:02:45.712Z,5.90
2018-12-10T09:03:49.907Z,6.00
2018-12-10T09:04:54.025Z,6.00
2018-12-10T09:05:58.609Z,6.00
2018-12-10T09:07:02.840Z,6.00
2018-12-10T09:08:07.002Z,6.00
2018-12-10T09:09:11.162Z,6.00
2018-12-10T09:10:17.201Z,5.90
2018-12-10T09:11:21.679Z,5.90
2018-12-10T09:12:25.896Z,5.90
2018-12-10T09:13:29.939Z,5.90
2018-12-10T09:14:34.179Z,5.80
2018-12-10T09:15:38.307Z,5.80
2018-12-10T09:16:42.729Z,5.80
2018-12-10T09:17:47.062Z,5.80
2018-12-10T09:18:51.385Z,5.80
2018-12-10T09:19:55.538Z,5.90
2018-12-10T09:20:59.731Z,5.90
2018-12-10T09:22:03.815Z,5.90
2018-12-10T09:23:07.951Z,5.90
2018-12-10T09:24:12.036Z,5.90
2018-12-10T09:25:16.186Z,6.00
2018-12-10T09:26:20.196Z,6.20
2018-12-10T09:27:24.315Z,6.40
2018-12-10T09:28:28.418Z,6.60
2018-12-10T09:29:32.607Z,6.80
2018-12-10T09:30:36.738Z,7.00
2018-12-10T09:31:40.791Z,7.10
2018-12-10T09:32:44.828Z,7.10
2018-12-10T09:33:49.063Z,7.20
2018-12-10T09:34:53.106Z,7.10
2018-12-10T09:35:57.169Z,6.90
2018-12-10T09:37:01.348Z,6.90
2018-12-10T09:38:05.467Z,6.90
2018-12-10T09:39:09.529Z,6.90
2018-12-10T09:40:13.666Z,7.00
2018-12-10T09:41:17.732Z,7.00
2018-12-10T09:42:21.737Z,7.20
2018-12-10T09:43:25.806Z,7.30
2018-12-10T09:44:29.826Z,7.40
2018-12-10T09:45:33.894Z,7.50
2018-12-10T09:46:37.893Z,7.60
2018-12-10T09:47:42.014Z,7.60
2018-12-10T09:48:46.054Z,7.70
2018-12-10T09:49:50.060Z,7.60
2018-12-10T09:50:54.146Z,7.70
2018-12-10T09:51:58.148Z,7.80
2018-12-10T09:53:02.274Z,7.80
2018-12-10T09:54:06.322Z,7.90
2018-12-10T09:55:10.355Z,8.00
2018-12-10T09:56:14.675Z,8.10
2018-12-10T09:57:18.838Z,8.00
2018-12-10T09:58:22.969Z,8.00
2018-12-10T09:59:26.994Z,8.10
2018-12-10T10:00:31.004Z,8.10
2018-12-10T10:01:35.030Z,8.20
2018-12-10T10:02:39.147Z,8.30
2018-12-10T10:03:43.518Z,8.30
2018-12-10T10:04:47.608Z,8.50
2018-12-10T10:05:51.977Z,8.60
2018-12-10T10:06:55.995Z,8.60
2018-12-10T10:08:00.044Z,8.70
2018-12-10T10:09:06.302Z,8.80
2018-12-10T10:10:12.378Z,9.00
2018-12-10T10:11:16.516Z,9.10
2018-12-10T10:12:20.532Z,9.10
2018-12-10T10:13:24.518Z,9.00
2018-12-10T10:14:28.586Z,8.90
2018-12-10T10:15:32.665Z,8.70
2018-12-10T10:16:36.696Z,8.70
2018-12-10T10:17:40.776Z,8.50
2018-12-10T10:18:44.786Z,8.30
2018-12-10T10:19:48.792Z,8.30
2018-12-10T10:20:52.798Z,8.00
2018-12-10T10:21:56.827Z,7.90
2018-12-10T10:23:00.867Z,7.70
2018-12-10T10:24:04.897Z,7.60
2018-12-10T10:25:08.883Z,7.50
2018-12-10T10:26:12.964Z,7.40
2018-12-10T10:27:16.996Z,7.30
2018-12-10T10:28:21.042Z,7.30
2018-12-10T10:29:25.055Z,7.20
2018-12-10T10:30:29.087Z,7.10
2018-12-10T10:31:33.100Z,7.10
2018-12-10T10:32:37.132Z,7.10
2018-12-10T10:33:41.232Z,7.00
2018-12-10T10:34:45.326Z,6.90
2018-12-10T10:35:49.366Z,6.90
2018-12-10T10:36:53.600Z,6.80
2018-12-10T10:37:57.609Z,6.80
2018-12-10T10:39:01.782Z,6.80
2018-12-10T10:40:08.361Z,6.80
2018-12-10T10:41:12.540Z,6.80
2018-12-10T10:42:16.562Z,6.80
2018-12-10T10:43:20.616Z,6.80
2018-12-10T10:44:24.638Z,6.90
2018-12-10T10:45:34.735Z,6.90
2018-12-10T10:46:34.991Z,6.90
2018-12-10T10:47:39.343Z,6.90
2018-12-10T10:48:43.411Z,6.90
2018-12-10T10:49:48.021Z,6.90
2018-12-10T10:50:53.079Z,6.80
2018-12-10T10:51:57.137Z,6.80
2018-12-10T10:53:01.169Z,6.80
2018-12-10T10:54:05.197Z,6.70
2018-12-10T10:55:09.470Z,6.60
2018-12-10T10:56:13.546Z,6.60
2018-12-10T10:57:17.558Z,6.60
2018-12-10T10:58:22.494Z,6.60
2018-12-10T10:59:26.613Z,6.60
2018-12-10T11:00:35.902Z,6.60
2018-12-10T11:01:45.307Z,6.50
2018-12-10T11:03:04.041Z,6.50
2018-12-10T11:04:08.126Z,6.40
2018-12-10T11:05:12.431Z,6.40
2018-12-10T11:06:16.470Z,6.40
2018-12-10T11:07:20.600Z,6.40
2018-12-10T11:08:24.625Z,6.40
2018-12-10T11:09:28.652Z,6.50
2018-12-10T11:10:32.725Z,6.50
2018-12-10T11:11:37.010Z,6.50
2018-12-10T11:12:41.144Z,6.50
2018-12-10T11:13:45.210Z,6.50
2018-12-10T11:14:49.279Z,6.50
2018-12-10T11:15:53.330Z,6.60
2018-12-10T11:16:57.483Z,6.60
2018-12-10T11:18:01.539Z,6.70
2018-12-10T11:19:06.758Z,6.70
2018-12-10T11:20:10.795Z,6.80
2018-12-10T11:21:14.859Z,6.80
2018-12-10T11:22:18.915Z,6.80
2018-12-10T11:23:23.107Z,6.80
2018-12-10T11:24:27.226Z,6.70
2018-12-10T11:25:31.379Z,6.70
2018-12-10T11:26:35.423Z,6.70
2018-12-10T11:27:39.487Z,6.80
2018-12-10T11:28:43.846Z,6.80
2018-12-10T11:29:47.930Z,6.80
2018-12-10T11:30:52.009Z,6.90
2018-12-10T11:31:56.049Z,6.90
2018-12-10T11:33:00.226Z,6.90
2018-12-10T11:34:04.286Z,6.90
2018-12-10T11:35:08.363Z,6.90
2018-12-10T11:36:12.378Z,7.00
2018-12-10T11:37:16.435Z,7.00
2018-12-10T11:38:20.577Z,7.00
2018-12-10T11:39:24.631Z,7.10
2018-12-10T11:40:28.813Z,7.10
2018-12-10T11:41:32.957Z,7.00
2018-12-10T11:42:37.263Z,7.00
2018-12-10T11:43:41.299Z,7.00
2018-12-10T11:44:45.346Z,7.00
2018-12-10T11:45:49.392Z,7.00
2018-12-10T11:46:53.495Z,6.90
2018-12-10T11:47:57.561Z,6.90
2018-12-10T11:49:01.779Z,6.80
2018-12-10T11:50:06.135Z,6.80
2018-12-10T11:51:10.232Z,6.70
2018-12-10T11:52:14.284Z,6.60
2018-12-10T11:53:18.399Z,6.50
2018-12-10T11:54:22.433Z,6.50
2018-12-10T11:55:26.567Z,6.40
2018-12-10T11:56:30.600Z,6.30
2018-12-10T11:57:34.614Z,6.30
2018-12-10T11:58:38.827Z,6.20
2018-12-10T11:59:42.894Z,6.10
2018-12-10T12:00:46.997Z,6.10
2018-12-10T12:01:51.037Z,6.10
2018-12-10T12:02:55.218Z,6.10
2018-12-10T12:03:59.281Z,6.10
2018-12-10T12:05:05.873Z,6.20
2018-12-10T12:06:10.037Z,6.20
2018-12-10T12:07:14.082Z,6.20
2018-12-10T12:08:18.087Z,6.20
2018-12-10T12:09:22.087Z,6.20
2018-12-10T12:10:26.145Z,6.30
2018-12-10T12:11:30.288Z,6.30
2018-12-10T12:12:34.335Z,6.40
2018-12-10T12:13:38.349Z,6.30
2018-12-10T12:14:42.444Z,6.40
2018-12-10T12:15:46.527Z,6.40
2018-12-10T12:16:50.602Z,6.60
2018-12-10T12:17:54.641Z,6.70
2018-12-10T12:18:58.789Z,6.90
2018-12-10T12:20:02.943Z,7.00
2018-12-10T12:21:07.017Z,7.10
2018-12-10T12:22:11.088Z,7.10
2018-12-10T12:23:15.207Z,7.20
2018-12-10T12:24:19.250Z,7.30
2018-12-10T12:25:23.300Z,7.40
2018-12-10T12:26:27.307Z,7.50
2018-12-10T12:27:31.345Z,7.70
2018-12-10T12:28:35.397Z,7.70
2018-12-10T12:29:39.427Z,7.90
2018-12-10T12:30:43.483Z,8.00
2018-12-10T12:31:47.509Z,8.10
2018-12-10T12:32:51.659Z,8.10
2018-12-10T12:33:55.655Z,8.10
2018-12-10T12:34:59.708Z,8.20
2018-12-10T12:36:03.743Z,8.30
2018-12-10T12:37:07.912Z,8.30
2018-12-10T12:38:12.002Z,8.30
2018-12-10T12:39:16.048Z,8.40
2018-12-10T12:40:20.108Z,8.30
2018-12-10T12:41:24.189Z,8.30
2018-12-10T12:42:28.210Z,8.20
2018-12-10T12:43:32.261Z,8.00
2018-12-10T12:44:36.286Z,8.00
2018-12-10T12:45:40.395Z,7.90
2018-12-10T12:46:44.485Z,7.90
2018-12-10T12:47:48.580Z,7.90
2018-12-10T12:48:52.648Z,7.90
2018-12-10T12:49:56.782Z,7.70
2018-12-10T12:51:00.826Z,7.70
2018-12-10T12:52:04.872Z,7.60
2018-12-10T12:53:08.899Z,7.60
2018-12-10T12:54:13.037Z,7.50
2018-12-10T12:55:17.099Z,7.50
2018-12-10T12:56:21.274Z,7.40
2018-12-10T12:57:25.275Z,7.40
2018-12-10T12:58:29.343Z,7.50
2018-12-10T12:59:33.371Z,7.60
2018-12-10T13:00:41.748Z,7.50
2018-12-10T13:01:49.146Z,7.60
2018-12-10T13:02:50.081Z,7.60
2018-12-10T13:03:54.425Z,7.80
2018-12-10T13:04:58.440Z,7.90
2018-12-10T13:06:06.815Z,7.90
2018-12-10T13:07:08.674Z,8.00
2018-12-10T13:08:12.834Z,8.10
2018-12-10T13:09:21.728Z,8.30
2018-12-10T13:10:23.315Z,8.40
2018-12-10T13:11:27.363Z,8.40
2018-12-10T13:12:31.546Z,8.40
2018-12-10T13:13:35.615Z,8.40
2018-12-10T13:14:39.695Z,8.50
2018-12-10T13:15:43.934Z,8.40
2018-12-10T13:16:49.726Z,8.20
2018-12-10T13:17:54.258Z,8.20
2018-12-10T13:18:58.283Z,8.10
2018-12-10T13:20:02.545Z,7.90
2018-12-10T13:21:06.867Z,7.90
2018-12-10T13:22:11.006Z,7.80
2018-12-10T13:23:15.226Z,7.80
2018-12-10T13:24:19.384Z,7.90
2018-12-10T13:25:24.306Z,7.90
2018-12-10T13:26:28.694Z,8.00
2018-12-10T13:27:33.914Z,8.10
2018-12-10T13:28:38.012Z,8.10
2018-12-10T13:29:42.278Z,8.10
2018-12-10T13:30:46.385Z,8.00
2018-12-10T13:31:50.788Z,7.90
2018-12-10T13:32:55.086Z,7.90
2018-12-10T13:33:59.214Z,7.80
2018-12-10T13:35:03.756Z,7.80
2018-12-10T13:36:08.225Z,7.50
2018-12-10T13:37:12.904Z,7.30
2018-12-10T13:38:17.110Z,7.10
2018-12-10T13:39:21.233Z,6.90
2018-12-10T13:40:25.339Z,6.90
2018-12-10T13:41:29.642Z,6.70
2018-12-10T13:42:33.728Z,6.50
2018-12-10T13:43:38.157Z,6.40
2018-12-10T13:44:42.286Z,6.10
2018-12-10T13:45:46.296Z,5.90
2018-12-10T13:46:50.445Z,5.70
2018-12-10T13:47:54.534Z,5.60
2018-12-10T13:48:58.669Z,5.50
2018-12-10T13:50:02.878Z,5.50
2018-12-10T13:51:07.062Z,5.40
2018-12-10T13:52:11.161Z,5.40
2018-12-10T13:53:15.289Z,5.40
2018-12-10T13:54:19.372Z,5.40
2018-12-10T13:55:28.769Z,5.50
2018-12-10T13:56:30.016Z,5.50
2018-12-10T13:57:34.059Z,5.50
2018-12-10T13:58:38.116Z,5.50
2018-12-10T13:59:42.211Z,5.50
2018-12-10T14:00:50.893Z,5.60
2018-12-10T14:01:52.664Z,5.70
2018-12-10T14:02:58.772Z,5.70
2018-12-10T14:04:05.430Z,5.80
2018-12-10T14:05:13.533Z,5.80
2018-12-10T14:06:17.673Z,5.80
2018-12-10T14:07:21.772Z,5.80
2018-12-10T14:08:25.863Z,5.80
2018-12-10T14:09:29.903Z,5.70
2018-12-10T14:10:33.965Z,5.70
2018-12-10T14:11:38.036Z,5.60
2018-12-10T14:12:42.126Z,5.60
2018-12-10T14:13:46.189Z,5.40
2018-12-10T14:14:50.330Z,5.30
2018-12-10T14:15:54.383Z,5.10
2018-12-10T14:16:58.456Z,5.00
2018-12-10T14:18:02.575Z,5.00